sensor_id;sensor_type;location;lat;lon;timestamp;P1;durP1;ratioP1;P2;durP2;ratioP2
5133;SDS011;2585;48.696;10.066;2023-02-28T00:00:49;8.48;;;2.28;;
5133;SDS011;2585;48.696;10.066;2023-02-28T00:03:16;4.20;;;2.40;;
5133;SDS011;2585;48.696;10.066;2023-02-28T00:05:43;4.05;;;2.55;;
5133;SDS011;2585;48.696;10.066;2023-02-28T00:08:10;7.90;;;2.65;;
5133;SDS011;2585;48.696;10.066;2023-02-28T00:10:37;7.88;;;2.65;;
5133;SDS011;2585;48.696;10.066;2023-02-28T00:13:05;7.72;;;3.25;;
5133;SDS011;2585;48.696;10.066;2023-02-28T00:15:33;4.15;;;2.70;;
5133;SDS011;2585;48.696;10.066;2023-02-28T00:18:00;5.05;;;2.85;;
5133;SDS011;2585;48.696;10.066;2023-02-28T00:20:27;7.13;;;2.70;;
5133;SDS011;2585;48.696;10.066;2023-02-28T00:22:54;4.97;;;2.70;;
5133;SDS011;2585;48.696;10.066;2023-02-28T00:25:22;9.27;;;2.45;;
5133;SDS011;2585;48.696;10.066;2023-02-28T00:27:50;4.30;;;2.70;;
5133;SDS011;2585;48.696;10.066;2023-02-28T00:30:18;5.82;;;3.10;;
5133;SDS011;2585;48.696;10.066;2023-02-28T00:32:47;7.35;;;3.30;;
5133;SDS011;2585;48.696;10.066;2023-02-28T00:35:14;7.43;;;2.65;;
5133;SDS011;2585;48.696;10.066;2023-02-28T00:37:41;3.78;;;2.55;;
5133;SDS011;2585;48.696;10.066;2023-02-28T00:40:09;5.50;;;2.90;;
5133;SDS011;2585;48.696;10.066;2023-02-28T00:42:37;2.80;;;2.03;;
5133;SDS011;2585;48.696;10.066;2023-02-28T00:45:05;7.60;;;3.13;;
5133;SDS011;2585;48.696;10.066;2023-02-28T00:47:32;5.57;;;2.58;;
5133;SDS011;2585;48.696;10.066;2023-02-28T00:49:59;6.40;;;3.53;;
5133;SDS011;2585;48.696;10.066;2023-02-28T00:52:26;3.70;;;2.70;;
5133;SDS011;2585;48.696;10.066;2023-02-28T00:54:53;5.07;;;2.70;;
5133;SDS011;2585;48.696;10.066;2023-02-28T00:57:20;10.48;;;2.85;;
5133;SDS011;2585;48.696;10.066;2023-02-28T00:59:47;4.88;;;2.60;;
5133;SDS011;2585;48.696;10.066;2023-02-28T01:02:14;14.50;;;2.80;;
5133;SDS011;2585;48.696;10.066;2023-02-28T01:04:41;4.20;;;2.80;;
5133;SDS011;2585;48.696;10.066;2023-02-28T01:07:08;4.20;;;2.78;;
5133;SDS011;2585;48.696;10.066;2023-02-28T01:09:34;6.22;;;3.03;;
5133;SDS011;2585;48.696;10.066;2023-02-28T01:12:01;5.57;;;2.90;;
5133;SDS011;2585;48.696;10.066;2023-02-28T01:14:28;6.53;;;3.35;;
5133;SDS011;2585;48.696;10.066;2023-02-28T01:16:55;4.53;;;2.67;;
5133;SDS011;2585;48.696;10.066;2023-02-28T01:19:22;7.85;;;3.60;;
5133;SDS011;2585;48.696;10.066;2023-02-28T01:21:48;5.60;;;2.70;;
5133;SDS011;2585;48.696;10.066;2023-02-28T01:24:15;10.05;;;3.05;;
5133;SDS011;2585;48.696;10.066;2023-02-28T01:26:42;7.05;;;4.05;;
5133;SDS011;2585;48.696;10.066;2023-02-28T01:29:09;6.32;;;3.28;;
5133;SDS011;2585;48.696;10.066;2023-02-28T01:31:35;4.68;;;2.75;;
5133;SDS011;2585;48.696;10.066;2023-02-28T01:34:03;7.13;;;4.20;;
5133;SDS011;2585;48.696;10.066;2023-02-28T01:36:29;10.77;;;3.20;;
5133;SDS011;2585;48.696;10.066;2023-02-28T01:38:56;6.35;;;3.60;;
5133;SDS011;2585;48.696;10.066;2023-02-28T01:41:28;5.30;;;2.97;;
5133;SDS011;2585;48.696;10.066;2023-02-28T01:43:59;17.13;;;3.45;;
5133;SDS011;2585;48.696;10.066;2023-02-28T01:46:35;8.85;;;3.38;;
5133;SDS011;2585;48.696;10.066;2023-02-28T01:49:09;7.68;;;3.40;;
5133;SDS011;2585;48.696;10.066;2023-02-28T01:51:48;3.90;;;2.47;;
5133;SDS011;2585;48.696;10.066;2023-02-28T01:54:20;9.88;;;3.80;;
5133;SDS011;2585;48.696;10.066;2023-02-28T01:56:57;8.35;;;3.00;;
5133;SDS011;2585;48.696;10.066;2023-02-28T02:02:12;6.47;;;3.33;;
5133;SDS011;2585;48.696;10.066;2023-02-28T02:04:46;6.68;;;3.42;;
5133;SDS011;2585;48.696;10.066;2023-02-28T02:07:19;6.03;;;3.38;;
5133;SDS011;2585;48.696;10.066;2023-02-28T02:09:47;4.13;;;3.10;;
5133;SDS011;2585;48.696;10.066;2023-02-28T02:12:20;4.70;;;3.70;;
5133;SDS011;2585;48.696;10.066;2023-02-28T02:17:44;16.45;;;4.13;;
5133;SDS011;2585;48.696;10.066;2023-02-28T02:20:24;6.63;;;3.72;;
5133;SDS011;2585;48.696;10.066;2023-02-28T02:26:25;5.30;;;3.80;;
5133;SDS011;2585;48.696;10.066;2023-02-28T02:28:59;4.53;;;3.40;;
5133;SDS011;2585;48.696;10.066;2023-02-28T02:35:07;10.52;;;4.32;;
5133;SDS011;2585;48.696;10.066;2023-02-28T02:40:22;10.07;;;3.70;;
5133;SDS011;2585;48.696;10.066;2023-02-28T02:43:35;10.25;;;4.70;;
5133;SDS011;2585;48.696;10.066;2023-02-28T02:48:52;6.60;;;4.10;;
5133;SDS011;2585;48.696;10.066;2023-02-28T02:51:22;7.30;;;3.70;;
5133;SDS011;2585;48.696;10.066;2023-02-28T02:53:52;7.57;;;3.55;;
5133;SDS011;2585;48.696;10.066;2023-02-28T02:56:27;5.30;;;3.85;;
5133;SDS011;2585;48.696;10.066;2023-02-28T02:58:59;5.35;;;3.70;;
5133;SDS011;2585;48.696;10.066;2023-02-28T03:01:33;6.35;;;4.22;;
5133;SDS011;2585;48.696;10.066;2023-02-28T03:04:03;8.75;;;4.97;;
5133;SDS011;2585;48.696;10.066;2023-02-28T03:06:33;11.48;;;4.20;;
5133;SDS011;2585;48.696;10.066;2023-02-28T03:09:01;7.25;;;4.60;;
5133;SDS011;2585;48.696;10.066;2023-02-28T03:11:29;11.13;;;4.53;;
5133;SDS011;2585;48.696;10.066;2023-02-28T03:14:00;8.02;;;4.45;;
5133;SDS011;2585;48.696;10.066;2023-02-28T03:16:34;7.28;;;4.20;;
5133;SDS011;2585;48.696;10.066;2023-02-28T03:25:13;10.43;;;4.40;;
5133;SDS011;2585;48.696;10.066;2023-02-28T03:38:41;7.65;;;4.03;;
5133;SDS011;2585;48.696;10.066;2023-02-28T03:43:49;12.63;;;5.15;;
5133;SDS011;2585;48.696;10.066;2023-02-28T03:46:22;7.78;;;5.07;;
5133;SDS011;2585;48.696;10.066;2023-02-28T03:49:53;9.50;;;5.03;;
5133;SDS011;2585;48.696;10.066;2023-02-28T03:51:58;10.63;;;5.43;;
5133;SDS011;2585;48.696;10.066;2023-02-28T03:54:34;14.38;;;5.60;;
5133;SDS011;2585;48.696;10.066;2023-02-28T03:59:45;8.45;;;4.80;;
5133;SDS011;2585;48.696;10.066;2023-02-28T04:02:17;7.47;;;4.50;;
5133;SDS011;2585;48.696;10.066;2023-02-28T04:04:44;7.25;;;4.95;;
5133;SDS011;2585;48.696;10.066;2023-02-28T04:07:15;7.32;;;5.05;;
5133;SDS011;2585;48.696;10.066;2023-02-28T04:09:42;10.80;;;5.45;;
5133;SDS011;2585;48.696;10.066;2023-02-28T04:12:09;9.48;;;5.63;;
5133;SDS011;2585;48.696;10.066;2023-02-28T04:14:36;8.20;;;4.82;;
5133;SDS011;2585;48.696;10.066;2023-02-28T04:17:02;9.50;;;4.97;;
5133;SDS011;2585;48.696;10.066;2023-02-28T04:19:29;13.90;;;4.50;;
5133;SDS011;2585;48.696;10.066;2023-02-28T04:21:56;9.80;;;5.53;;
5133;SDS011;2585;48.696;10.066;2023-02-28T04:24:24;12.68;;;5.32;;
5133;SDS011;2585;48.696;10.066;2023-02-28T04:26:53;7.97;;;4.93;;
5133;SDS011;2585;48.696;10.066;2023-02-28T04:29:23;7.00;;;5.10;;
5133;SDS011;2585;48.696;10.066;2023-02-28T04:31:54;9.77;;;5.28;;
5133;SDS011;2585;48.696;10.066;2023-02-28T04:34:27;6.95;;;4.63;;
5133;SDS011;2585;48.696;10.066;2023-02-28T04:36:56;9.77;;;5.53;;
5133;SDS011;2585;48.696;10.066;2023-02-28T04:39:37;13.57;;;5.35;;
5133;SDS011;2585;48.696;10.066;2023-02-28T04:42:05;10.02;;;4.63;;
5133;SDS011;2585;48.696;10.066;2023-02-28T04:44:32;8.80;;;5.60;;
5133;SDS011;2585;48.696;10.066;2023-02-28T04:46:58;10.43;;;5.82;;
5133;SDS011;2585;48.696;10.066;2023-02-28T04:49:25;12.65;;;5.30;;
5133;SDS011;2585;48.696;10.066;2023-02-28T04:51:52;10.93;;;5.88;;
5133;SDS011;2585;48.696;10.066;2023-02-28T04:54:19;14.82;;;5.72;;
5133;SDS011;2585;48.696;10.066;2023-02-28T04:56:46;8.20;;;5.65;;
5133;SDS011;2585;48.696;10.066;2023-02-28T04:59:15;10.70;;;4.97;;
5133;SDS011;2585;48.696;10.066;2023-02-28T05:01:45;13.32;;;5.60;;
5133;SDS011;2585;48.696;10.066;2023-02-28T05:04:14;11.60;;;5.25;;
5133;SDS011;2585;48.696;10.066;2023-02-28T05:06:41;11.00;;;5.90;;
5133;SDS011;2585;48.696;10.066;2023-02-28T05:09:08;8.00;;;5.60;;
5133;SDS011;2585;48.696;10.066;2023-02-28T05:11:37;9.15;;;5.18;;
5133;SDS011;2585;48.696;10.066;2023-02-28T05:14:14;9.23;;;4.75;;
5133;SDS011;2585;48.696;10.066;2023-02-28T05:16:41;10.45;;;6.05;;
5133;SDS011;2585;48.696;10.066;2023-02-28T05:19:09;10.70;;;6.40;;
5133;SDS011;2585;48.696;10.066;2023-02-28T05:21:48;10.55;;;5.60;;
5133;SDS011;2585;48.696;10.066;2023-02-28T05:24:18;8.77;;;5.55;;
5133;SDS011;2585;48.696;10.066;2023-02-28T05:26:51;11.48;;;5.70;;
5133;SDS011;2585;48.696;10.066;2023-02-28T05:29:20;13.10;;;5.57;;
5133;SDS011;2585;48.696;10.066;2023-02-28T05:31:47;10.77;;;5.47;;
5133;SDS011;2585;48.696;10.066;2023-02-28T05:34:14;9.25;;;5.70;;
5133;SDS011;2585;48.696;10.066;2023-02-28T05:36:42;9.73;;;5.90;;
5133;SDS011;2585;48.696;10.066;2023-02-28T05:39:09;9.00;;;5.20;;
5133;SDS011;2585;48.696;10.066;2023-02-28T05:41:40;14.63;;;6.88;;
5133;SDS011;2585;48.696;10.066;2023-02-28T05:44:07;12.90;;;6.85;;
5133;SDS011;2585;48.696;10.066;2023-02-28T05:46:34;9.95;;;5.90;;
5133;SDS011;2585;48.696;10.066;2023-02-28T05:49:01;11.80;;;5.93;;
5133;SDS011;2585;48.696;10.066;2023-02-28T05:51:28;7.90;;;5.55;;
5133;SDS011;2585;48.696;10.066;2023-02-28T05:53:58;11.23;;;6.50;;
5133;SDS011;2585;48.696;10.066;2023-02-28T05:56:26;15.20;;;7.18;;
5133;SDS011;2585;48.696;10.066;2023-02-28T05:58:53;8.95;;;6.07;;
5133;SDS011;2585;48.696;10.066;2023-02-28T06:01:39;9.25;;;5.75;;
5133;SDS011;2585;48.696;10.066;2023-02-28T06:04:16;10.93;;;6.13;;
5133;SDS011;2585;48.696;10.066;2023-02-28T06:06:56;13.77;;;6.78;;
5133;SDS011;2585;48.696;10.066;2023-02-28T06:09:24;14.70;;;6.95;;
5133;SDS011;2585;48.696;10.066;2023-02-28T06:11:51;10.60;;;5.93;;
5133;SDS011;2585;48.696;10.066;2023-02-28T06:14:18;9.90;;;6.47;;
5133;SDS011;2585;48.696;10.066;2023-02-28T06:16:46;12.25;;;6.85;;
5133;SDS011;2585;48.696;10.066;2023-02-28T06:19:14;9.70;;;6.10;;
5133;SDS011;2585;48.696;10.066;2023-02-28T06:21:41;9.13;;;5.75;;
5133;SDS011;2585;48.696;10.066;2023-02-28T06:24:08;8.73;;;6.20;;
5133;SDS011;2585;48.696;10.066;2023-02-28T06:26:36;10.02;;;6.38;;
5133;SDS011;2585;48.696;10.066;2023-02-28T06:29:02;10.23;;;5.78;;
5133;SDS011;2585;48.696;10.066;2023-02-28T06:31:29;8.48;;;5.85;;
5133;SDS011;2585;48.696;10.066;2023-02-28T06:33:57;8.43;;;6.03;;
5133;SDS011;2585;48.696;10.066;2023-02-28T06:36:23;9.45;;;5.50;;
5133;SDS011;2585;48.696;10.066;2023-02-28T06:38:50;10.20;;;6.03;;
5133;SDS011;2585;48.696;10.066;2023-02-28T06:41:24;11.20;;;6.18;;
5133;SDS011;2585;48.696;10.066;2023-02-28T06:43:52;12.27;;;5.85;;
5133;SDS011;2585;48.696;10.066;2023-02-28T06:46:19;13.10;;;7.28;;
5133;SDS011;2585;48.696;10.066;2023-02-28T06:48:46;12.52;;;6.93;;
5133;SDS011;2585;48.696;10.066;2023-02-28T06:51:17;10.18;;;6.25;;
5133;SDS011;2585;48.696;10.066;2023-02-28T06:53:50;10.43;;;7.05;;
5133;SDS011;2585;48.696;10.066;2023-02-28T06:56:17;11.82;;;8.02;;
5133;SDS011;2585;48.696;10.066;2023-02-28T06:58:47;9.65;;;6.35;;
5133;SDS011;2585;48.696;10.066;2023-02-28T07:01:14;10.90;;;7.20;;
5133;SDS011;2585;48.696;10.066;2023-02-28T07:03:41;12.50;;;7.80;;
5133;SDS011;2585;48.696;10.066;2023-02-28T07:06:08;12.88;;;7.10;;
5133;SDS011;2585;48.696;10.066;2023-02-28T07:08:35;15.68;;;7.63;;
5133;SDS011;2585;48.696;10.066;2023-02-28T07:11:02;11.90;;;6.70;;
5133;SDS011;2585;48.696;10.066;2023-02-28T07:13:30;15.48;;;7.72;;
5133;SDS011;2585;48.696;10.066;2023-02-28T07:15:58;10.48;;;7.00;;
5133;SDS011;2585;48.696;10.066;2023-02-28T07:18:26;12.68;;;7.22;;
5133;SDS011;2585;48.696;10.066;2023-02-28T07:20:54;11.65;;;6.18;;
5133;SDS011;2585;48.696;10.066;2023-02-28T07:23:21;12.88;;;7.18;;
5133;SDS011;2585;48.696;10.066;2023-02-28T07:25:49;15.85;;;7.35;;
5133;SDS011;2585;48.696;10.066;2023-02-28T07:28:16;10.60;;;6.68;;
5133;SDS011;2585;48.696;10.066;2023-02-28T07:30:43;11.88;;;7.57;;
5133;SDS011;2585;48.696;10.066;2023-02-28T07:33:10;12.13;;;7.38;;
5133;SDS011;2585;48.696;10.066;2023-02-28T07:35:37;11.40;;;6.90;;
5133;SDS011;2585;48.696;10.066;2023-02-28T07:38:03;11.75;;;6.45;;
5133;SDS011;2585;48.696;10.066;2023-02-28T07:40:30;12.77;;;6.55;;
5133;SDS011;2585;48.696;10.066;2023-02-28T07:42:58;12.30;;;6.93;;
5133;SDS011;2585;48.696;10.066;2023-02-28T07:45:29;11.13;;;6.35;;
5133;SDS011;2585;48.696;10.066;2023-02-28T07:47:57;12.70;;;6.78;;
5133;SDS011;2585;48.696;10.066;2023-02-28T07:50:24;14.77;;;7.20;;
5133;SDS011;2585;48.696;10.066;2023-02-28T07:52:52;14.90;;;7.47;;
5133;SDS011;2585;48.696;10.066;2023-02-28T07:55:19;14.02;;;7.57;;
5133;SDS011;2585;48.696;10.066;2023-02-28T07:57:45;12.70;;;6.97;;
5133;SDS011;2585;48.696;10.066;2023-02-28T08:00:12;13.13;;;7.70;;
5133;SDS011;2585;48.696;10.066;2023-02-28T08:02:40;11.93;;;7.72;;
5133;SDS011;2585;48.696;10.066;2023-02-28T08:05:07;10.82;;;7.03;;
5133;SDS011;2585;48.696;10.066;2023-02-28T08:07:34;11.30;;;7.18;;
5133;SDS011;2585;48.696;10.066;2023-02-28T08:10:01;12.93;;;7.93;;
5133;SDS011;2585;48.696;10.066;2023-02-28T08:12:27;10.52;;;7.22;;
5133;SDS011;2585;48.696;10.066;2023-02-28T08:14:54;15.55;;;7.88;;
5133;SDS011;2585;48.696;10.066;2023-02-28T08:17:21;12.10;;;7.25;;
5133;SDS011;2585;48.696;10.066;2023-02-28T08:19:48;18.02;;;8.18;;
5133;SDS011;2585;48.696;10.066;2023-02-28T08:22:15;13.98;;;7.78;;
5133;SDS011;2585;48.696;10.066;2023-02-28T08:24:42;12.05;;;6.63;;
5133;SDS011;2585;48.696;10.066;2023-02-28T08:27:10;19.90;;;8.70;;
5133;SDS011;2585;48.696;10.066;2023-02-28T08:29:37;15.45;;;7.50;;
5133;SDS011;2585;48.696;10.066;2023-02-28T08:32:04;12.90;;;7.65;;
5133;SDS011;2585;48.696;10.066;2023-02-28T08:34:45;12.73;;;7.72;;
5133;SDS011;2585;48.696;10.066;2023-02-28T08:37:13;12.25;;;7.28;;
5133;SDS011;2585;48.696;10.066;2023-02-28T08:39:40;14.75;;;7.70;;
5133;SDS011;2585;48.696;10.066;2023-02-28T08:42:06;14.18;;;7.72;;
5133;SDS011;2585;48.696;10.066;2023-02-28T08:44:33;15.10;;;7.50;;
5133;SDS011;2585;48.696;10.066;2023-02-28T08:47:00;20.75;;;7.63;;
5133;SDS011;2585;48.696;10.066;2023-02-28T08:49:27;19.05;;;9.10;;
5133;SDS011;2585;48.696;10.066;2023-02-28T08:51:54;13.98;;;7.47;;
5133;SDS011;2585;48.696;10.066;2023-02-28T08:54:23;17.23;;;7.20;;
5133;SDS011;2585;48.696;10.066;2023-02-28T08:56:50;13.90;;;7.28;;
5133;SDS011;2585;48.696;10.066;2023-02-28T08:59:17;10.20;;;6.78;;
5133;SDS011;2585;48.696;10.066;2023-02-28T09:01:44;15.00;;;7.95;;
5133;SDS011;2585;48.696;10.066;2023-02-28T09:04:11;14.32;;;7.72;;
5133;SDS011;2585;48.696;10.066;2023-02-28T09:06:42;13.32;;;7.95;;
5133;SDS011;2585;48.696;10.066;2023-02-28T09:09:10;12.80;;;7.60;;
5133;SDS011;2585;48.696;10.066;2023-02-28T09:11:37;11.75;;;7.20;;
5133;SDS011;2585;48.696;10.066;2023-02-28T09:14:04;13.00;;;7.10;;
5133;SDS011;2585;48.696;10.066;2023-02-28T09:16:31;10.85;;;6.85;;
5133;SDS011;2585;48.696;10.066;2023-02-28T09:18:59;11.98;;;7.15;;
5133;SDS011;2585;48.696;10.066;2023-02-28T09:21:27;12.52;;;6.90;;
5133;SDS011;2585;48.696;10.066;2023-02-28T09:23:54;14.90;;;8.10;;
5133;SDS011;2585;48.696;10.066;2023-02-28T09:26:22;13.02;;;7.45;;
5133;SDS011;2585;48.696;10.066;2023-02-28T09:28:51;13.75;;;8.30;;
5133;SDS011;2585;48.696;10.066;2023-02-28T09:31:20;12.75;;;8.45;;
5133;SDS011;2585;48.696;10.066;2023-02-28T09:33:49;14.23;;;8.15;;
5133;SDS011;2585;48.696;10.066;2023-02-28T09:36:17;15.02;;;6.97;;
5133;SDS011;2585;48.696;10.066;2023-02-28T09:38:44;15.65;;;8.00;;
5133;SDS011;2585;48.696;10.066;2023-02-28T09:41:16;11.80;;;7.60;;
5133;SDS011;2585;48.696;10.066;2023-02-28T09:43:47;13.55;;;8.75;;
5133;SDS011;2585;48.696;10.066;2023-02-28T09:46:21;11.40;;;7.35;;
5133;SDS011;2585;48.696;10.066;2023-02-28T09:48:59;11.10;;;7.70;;
5133;SDS011;2585;48.696;10.066;2023-02-28T09:54:14;14.73;;;8.07;;
5133;SDS011;2585;48.696;10.066;2023-02-28T09:56:47;14.35;;;7.43;;
5133;SDS011;2585;48.696;10.066;2023-02-28T10:04:58;15.60;;;7.43;;
5133;SDS011;2585;48.696;10.066;2023-02-28T10:07:41;15.02;;;7.32;;
5133;SDS011;2585;48.696;10.066;2023-02-28T10:10:45;16.70;;;7.70;;
5133;SDS011;2585;48.696;10.066;2023-02-28T10:13:17;10.57;;;6.32;;
5133;SDS011;2585;48.696;10.066;2023-02-28T10:16:13;14.10;;;8.02;;
5133;SDS011;2585;48.696;10.066;2023-02-28T10:18:53;13.75;;;7.10;;
5133;SDS011;2585;48.696;10.066;2023-02-28T10:21:26;11.57;;;7.30;;
5133;SDS011;2585;48.696;10.066;2023-02-28T10:23:59;11.77;;;6.85;;
5133;SDS011;2585;48.696;10.066;2023-02-28T10:26:31;10.77;;;7.18;;
5133;SDS011;2585;48.696;10.066;2023-02-28T10:28:59;13.30;;;7.50;;
5133;SDS011;2585;48.696;10.066;2023-02-28T10:31:26;13.88;;;7.07;;
5133;SDS011;2585;48.696;10.066;2023-02-28T10:33:53;13.75;;;7.25;;
5133;SDS011;2585;48.696;10.066;2023-02-28T10:36:20;12.10;;;6.70;;
5133;SDS011;2585;48.696;10.066;2023-02-28T10:38:48;9.85;;;7.00;;
5133;SDS011;2585;48.696;10.066;2023-02-28T10:41:29;12.30;;;7.80;;
5133;SDS011;2585;48.696;10.066;2023-02-28T10:44:14;17.80;;;7.25;;
5133;SDS011;2585;48.696;10.066;2023-02-28T10:46:47;8.73;;;6.45;;
5133;SDS011;2585;48.696;10.066;2023-02-28T10:49:28;9.88;;;6.72;;
5133;SDS011;2585;48.696;10.066;2023-02-28T10:51:56;12.20;;;6.72;;
5133;SDS011;2585;48.696;10.066;2023-02-28T10:57:15;13.23;;;7.20;;
5133;SDS011;2585;48.696;10.066;2023-02-28T10:59:42;13.03;;;5.97;;
5133;SDS011;2585;48.696;10.066;2023-02-28T11:07:55;8.70;;;5.87;;
5133;SDS011;2585;48.696;10.066;2023-02-28T11:10:26;9.63;;;6.67;;
5133;SDS011;2585;48.696;10.066;2023-02-28T11:12:56;10.33;;;6.40;;
5133;SDS011;2585;48.696;10.066;2023-02-28T11:15:30;11.10;;;6.80;;
5133;SDS011;2585;48.696;10.066;2023-02-28T11:18:00;11.60;;;6.90;;
5133;SDS011;2585;48.696;10.066;2023-02-28T11:20:50;9.80;;;6.90;;
5133;SDS011;2585;48.696;10.066;2023-02-28T11:23:20;9.83;;;6.40;;
5133;SDS011;2585;48.696;10.066;2023-02-28T11:25:50;10.00;;;6.60;;
5133;SDS011;2585;48.696;10.066;2023-02-28T11:28:24;11.53;;;6.70;;
5133;SDS011;2585;48.696;10.066;2023-02-28T11:33:44;9.73;;;6.63;;
5133;SDS011;2585;48.696;10.066;2023-02-28T11:36:17;8.27;;;6.17;;
5133;SDS011;2585;48.696;10.066;2023-02-28T11:38:46;8.40;;;5.93;;
5133;SDS011;2585;48.696;10.066;2023-02-28T11:41:28;11.40;;;6.50;;
5133;SDS011;2585;48.696;10.066;2023-02-28T11:46:49;6.63;;;5.73;;
5133;SDS011;2585;48.696;10.066;2023-02-28T11:49:22;9.37;;;6.80;;
5133;SDS011;2585;48.696;10.066;2023-02-28T11:52:06;9.23;;;6.20;;
5133;SDS011;2585;48.696;10.066;2023-02-28T12:08:46;10.37;;;7.27;;
5133;SDS011;2585;48.696;10.066;2023-02-28T12:11:45;7.90;;;5.63;;
5133;SDS011;2585;48.696;10.066;2023-02-28T12:20:17;9.60;;;6.57;;
5133;SDS011;2585;48.696;10.066;2023-02-28T12:22:55;12.67;;;7.13;;
5133;SDS011;2585;48.696;10.066;2023-02-28T12:25:55;9.80;;;6.83;;
5133;SDS011;2585;48.696;10.066;2023-02-28T12:28:43;7.73;;;6.80;;
5133;SDS011;2585;48.696;10.066;2023-02-28T12:31:20;9.30;;;6.43;;
5133;SDS011;2585;48.696;10.066;2023-02-28T12:33:52;9.30;;;6.90;;
5133;SDS011;2585;48.696;10.066;2023-02-28T12:36:23;6.57;;;5.53;;
5133;SDS011;2585;48.696;10.066;2023-02-28T12:44:32;7.30;;;5.70;;
5133;SDS011;2585;48.696;10.066;2023-02-28T12:47:16;9.00;;;6.63;;
5133;SDS011;2585;48.696;10.066;2023-02-28T12:49:49;10.07;;;6.90;;
5133;SDS011;2585;48.696;10.066;2023-02-28T12:52:31;11.30;;;6.57;;
5133;SDS011;2585;48.696;10.066;2023-02-28T12:55:14;13.40;;;7.57;;
5133;SDS011;2585;48.696;10.066;2023-02-28T13:00:43;12.00;;;6.43;;
5133;SDS011;2585;48.696;10.066;2023-02-28T13:09:21;10.00;;;6.60;;
5133;SDS011;2585;48.696;10.066;2023-02-28T13:11:49;11.33;;;7.37;;
5133;SDS011;2585;48.696;10.066;2023-02-28T13:16:51;10.90;;;6.43;;
5133;SDS011;2585;48.696;10.066;2023-02-28T13:19:31;10.53;;;5.90;;
5133;SDS011;2585;48.696;10.066;2023-02-28T13:22:00;8.90;;;6.47;;
5133;SDS011;2585;48.696;10.066;2023-02-28T13:37:35;16.93;;;6.83;;
5133;SDS011;2585;48.696;10.066;2023-02-28T13:47:43;13.10;;;6.63;;
5133;SDS011;2585;48.696;10.066;2023-02-28T13:50:27;11.87;;;6.53;;
5133;SDS011;2585;48.696;10.066;2023-02-28T14:06:31;8.90;;;6.50;;
5133;SDS011;2585;48.696;10.066;2023-02-28T14:09:01;9.10;;;5.80;;
5133;SDS011;2585;48.696;10.066;2023-02-28T14:11:35;12.13;;;6.80;;
5133;SDS011;2585;48.696;10.066;2023-02-28T14:14:04;11.93;;;7.17;;
5133;SDS011;2585;48.696;10.066;2023-02-28T14:16:45;8.80;;;6.00;;
5133;SDS011;2585;48.696;10.066;2023-02-28T14:19:28;12.33;;;7.07;;
5133;SDS011;2585;48.696;10.066;2023-02-28T14:33:11;12.53;;;6.70;;
5133;SDS011;2585;48.696;10.066;2023-02-28T14:36:07;10.53;;;6.17;;
5133;SDS011;2585;48.696;10.066;2023-02-28T14:41:31;8.73;;;6.70;;
5133;SDS011;2585;48.696;10.066;2023-02-28T14:44:38;11.13;;;6.90;;
5133;SDS011;2585;48.696;10.066;2023-02-28T14:46:59;10.10;;;7.10;;
5133;SDS011;2585;48.696;10.066;2023-02-28T14:49:41;10.90;;;6.50;;
5133;SDS011;2585;48.696;10.066;2023-02-28T14:54:38;11.27;;;6.90;;
5133;SDS011;2585;48.696;10.066;2023-02-28T14:57:06;11.37;;;7.87;;
5133;SDS011;2585;48.696;10.066;2023-02-28T14:59:46;18.53;;;7.30;;
5133;SDS011;2585;48.696;10.066;2023-02-28T15:02:20;10.27;;;7.20;;
5133;SDS011;2585;48.696;10.066;2023-02-28T15:04:53;19.07;;;11.27;;
5133;SDS011;2585;48.696;10.066;2023-02-28T15:07:25;9.93;;;7.30;;
5133;SDS011;2585;48.696;10.066;2023-02-28T15:12:49;11.40;;;6.93;;
5133;SDS011;2585;48.696;10.066;2023-02-28T15:15:20;10.93;;;7.20;;
5133;SDS011;2585;48.696;10.066;2023-02-28T15:18:01;11.90;;;6.50;;
5133;SDS011;2585;48.696;10.066;2023-02-28T15:20:31;12.17;;;7.27;;
5133;SDS011;2585;48.696;10.066;2023-02-28T15:22:59;12.52;;;7.25;;
5133;SDS011;2585;48.696;10.066;2023-02-28T15:25:26;18.00;;;8.13;;
5133;SDS011;2585;48.696;10.066;2023-02-28T15:27:54;15.20;;;7.15;;
5133;SDS011;2585;48.696;10.066;2023-02-28T15:30:28;10.27;;;6.45;;
5133;SDS011;2585;48.696;10.066;2023-02-28T15:33:04;11.25;;;7.20;;
5133;SDS011;2585;48.696;10.066;2023-02-28T15:35:37;12.25;;;7.32;;
5133;SDS011;2585;48.696;10.066;2023-02-28T15:38:38;10.85;;;7.10;;
5133;SDS011;2585;48.696;10.066;2023-02-28T15:40:59;10.23;;;6.70;;
5133;SDS011;2585;48.696;10.066;2023-02-28T15:43:27;11.70;;;7.10;;
5133;SDS011;2585;48.696;10.066;2023-02-28T15:48:31;10.38;;;7.00;;
5133;SDS011;2585;48.696;10.066;2023-02-28T15:51:09;12.20;;;7.38;;
5133;SDS011;2585;48.696;10.066;2023-02-28T15:54:00;15.50;;;7.20;;
5133;SDS011;2585;48.696;10.066;2023-02-28T15:56:38;12.30;;;7.22;;
5133;SDS011;2585;48.696;10.066;2023-02-28T15:59:15;13.63;;;7.95;;
5133;SDS011;2585;48.696;10.066;2023-02-28T16:02:01;13.25;;;7.32;;
5133;SDS011;2585;48.696;10.066;2023-02-28T16:07:33;18.08;;;9.00;;
5133;SDS011;2585;48.696;10.066;2023-02-28T16:10:01;15.25;;;9.32;;
5133;SDS011;2585;48.696;10.066;2023-02-28T16:12:29;13.05;;;8.52;;
5133;SDS011;2585;48.696;10.066;2023-02-28T16:14:58;11.82;;;8.18;;
5133;SDS011;2585;48.696;10.066;2023-02-28T16:17:31;15.32;;;7.93;;
5133;SDS011;2585;48.696;10.066;2023-02-28T16:20:00;16.38;;;8.48;;
5133;SDS011;2585;48.696;10.066;2023-02-28T16:22:27;15.20;;;8.80;;
5133;SDS011;2585;48.696;10.066;2023-02-28T16:24:53;12.00;;;8.15;;
5133;SDS011;2585;48.696;10.066;2023-02-28T16:27:41;12.45;;;8.30;;
5133;SDS011;2585;48.696;10.066;2023-02-28T16:30:19;14.65;;;8.20;;
5133;SDS011;2585;48.696;10.066;2023-02-28T16:32:51;10.90;;;7.95;;
5133;SDS011;2585;48.696;10.066;2023-02-28T16:35:20;10.45;;;7.25;;
5133;SDS011;2585;48.696;10.066;2023-02-28T16:37:48;14.13;;;7.68;;
5133;SDS011;2585;48.696;10.066;2023-02-28T16:40:17;13.32;;;7.80;;
5133;SDS011;2585;48.696;10.066;2023-02-28T16:42:47;14.45;;;8.50;;
5133;SDS011;2585;48.696;10.066;2023-02-28T16:45:18;15.35;;;8.85;;
5133;SDS011;2585;48.696;10.066;2023-02-28T16:47:49;14.27;;;10.00;;
5133;SDS011;2585;48.696;10.066;2023-02-28T16:50:20;11.80;;;8.05;;
5133;SDS011;2585;48.696;10.066;2023-02-28T16:52:51;14.98;;;8.52;;
5133;SDS011;2585;48.696;10.066;2023-02-28T16:55:18;16.05;;;8.35;;
5133;SDS011;2585;48.696;10.066;2023-02-28T16:57:47;14.13;;;8.68;;
5133;SDS011;2585;48.696;10.066;2023-02-28T17:00:18;14.88;;;8.43;;
5133;SDS011;2585;48.696;10.066;2023-02-28T17:02:45;13.30;;;8.35;;
5133;SDS011;2585;48.696;10.066;2023-02-28T17:05:13;17.08;;;9.45;;
5133;SDS011;2585;48.696;10.066;2023-02-28T17:07:41;16.85;;;8.63;;
5133;SDS011;2585;48.696;10.066;2023-02-28T17:10:13;14.95;;;8.35;;
5133;SDS011;2585;48.696;10.066;2023-02-28T17:12:42;15.90;;;8.93;;
5133;SDS011;2585;48.696;10.066;2023-02-28T17:15:10;13.85;;;9.55;;
5133;SDS011;2585;48.696;10.066;2023-02-28T17:17:38;15.82;;;9.43;;
5133;SDS011;2585;48.696;10.066;2023-02-28T17:20:05;17.05;;;9.13;;
5133;SDS011;2585;48.696;10.066;2023-02-28T17:22:37;20.60;;;9.30;;
5133;SDS011;2585;48.696;10.066;2023-02-28T17:25:05;14.88;;;8.55;;
5133;SDS011;2585;48.696;10.066;2023-02-28T17:27:32;17.52;;;9.07;;
5133;SDS011;2585;48.696;10.066;2023-02-28T17:29:59;17.58;;;9.13;;
5133;SDS011;2585;48.696;10.066;2023-02-28T17:32:27;15.80;;;9.07;;
5133;SDS011;2585;48.696;10.066;2023-02-28T17:34:53;12.55;;;8.43;;
5133;SDS011;2585;48.696;10.066;2023-02-28T17:37:20;14.57;;;9.15;;
5133;SDS011;2585;48.696;10.066;2023-02-28T17:39:47;16.90;;;9.52;;
5133;SDS011;2585;48.696;10.066;2023-02-28T17:42:14;16.73;;;9.07;;
5133;SDS011;2585;48.696;10.066;2023-02-28T17:44:40;15.80;;;9.38;;
5133;SDS011;2585;48.696;10.066;2023-02-28T17:47:08;14.38;;;8.98;;
5133;SDS011;2585;48.696;10.066;2023-02-28T17:49:37;17.67;;;10.23;;
5133;SDS011;2585;48.696;10.066;2023-02-28T17:52:04;15.25;;;8.80;;
5133;SDS011;2585;48.696;10.066;2023-02-28T17:54:31;14.90;;;9.43;;